createdAt,value
2018-08-27T00:00:21.190Z,0.00
2018-08-27T00:01:21.365Z,0.00
2018-08-27T00:02:21.575Z,0.00
2018-08-27T00:03:21.732Z,0.00
2018-08-27T00:04:21.905Z,0.00
2018-08-27T00:05:22.081Z,0.00
2018-08-27T00:06:22.255Z,0.00
2018-08-27T00:07:22.444Z,0.00
2018-08-27T00:08:22.611Z,0.00
2018-08-27T00:09:22.795Z,0.00
2018-08-27T00:10:22.976Z,0.00
2018-08-27T00:11:23.149Z,0.00
2018-08-27T00:12:23.325Z,0.00
2018-08-27T00:13:23.506Z,0.00
2018-08-27T00:14:23.685Z,0.00
2018-08-27T00:15:23.862Z,0.00
2018-08-27T00:16:24.037Z,0.00
2018-08-27T00:17:24.208Z,0.00
2018-08-27T00:18:24.382Z,0.00
2018-08-27T00:19:24.551Z,0.00
2018-08-27T00:20:24.719Z,0.00
2018-08-27T00:21:24.888Z,0.00
2018-08-27T00:22:25.059Z,0.00
2018-08-27T00:23:25.232Z,0.00
2018-08-27T00:24:25.401Z,0.00
2018-08-27T00:25:25.624Z,0.00
2018-08-27T00:26:25.761Z,0.00
2018-08-27T00:27:25.935Z,0.00
2018-08-27T00:28:26.110Z,0.00
2018-08-27T00:29:26.289Z,0.00
2018-08-27T00:30:26.470Z,0.00
2018-08-27T00:31:26.655Z,0.00
2018-08-27T00:32:26.824Z,0.00
2018-08-27T00:33:26.998Z,0.00
2018-08-27T00:34:27.175Z,0.00
2018-08-27T00:35:27.348Z,0.00
2018-08-27T00:36:27.516Z,0.00
2018-08-27T00:37:27.693Z,0.00
2018-08-27T00:38:27.864Z,0.00
2018-08-27T00:39:28.042Z,0.00
2018-08-27T00:40:28.211Z,0.00
2018-08-27T00:41:28.392Z,0.00
2018-08-27T00:42:28.560Z,0.00
2018-08-27T00:43:28.736Z,0.00
2018-08-27T00:44:28.917Z,0.00
2018-08-27T00:45:29.094Z,0.00
2018-08-27T00:46:29.286Z,0.00
2018-08-27T00:47:29.467Z,0.00
2018-08-27T00:48:29.633Z,0.00
2018-08-27T00:49:29.801Z,0.00
2018-08-27T00:50:29.978Z,0.00
2018-08-27T00:51:30.150Z,0.00
2018-08-27T00:52:30.331Z,0.00
2018-08-27T00:53:30.504Z,0.00
2018-08-27T00:54:30.731Z,0.00
2018-08-27T00:55:30.885Z,0.00
2018-08-27T00:56:31.054Z,0.00
2018-08-27T00:57:31.228Z,0.00
2018-08-27T00:58:31.401Z,0.00
2018-08-27T00:59:31.571Z,0.00
2018-08-27T01:00:31.748Z,0.00
2018-08-27T01:01:31.929Z,0.00
2018-08-27T01:02:32.104Z,0.00
2018-08-27T01:03:32.284Z,0.00
2018-08-27T01:04:32.461Z,0.00
2018-08-27T01:05:32.632Z,0.00
2018-08-27T01:06:32.841Z,0.00
2018-08-27T01:07:32.904Z,0.00
2018-08-27T01:08:33.080Z,0.00
2018-08-27T01:09:33.251Z,0.00
2018-08-27T01:10:33.421Z,0.00
2018-08-27T01:11:33.598Z,0.00
2018-08-27T01:12:33.771Z,0.00
2018-08-27T01:13:33.951Z,0.00
2018-08-27T01:14:34.121Z,0.00
2018-08-27T01:15:34.299Z,0.00
2018-08-27T01:16:34.474Z,0.00
2018-08-27T01:17:34.644Z,0.00
2018-08-27T01:18:34.823Z,0.00
2018-08-27T01:19:34.998Z,0.00
2018-08-27T01:20:35.173Z,0.00
2018-08-27T01:21:35.350Z,0.00
2018-08-27T01:22:35.604Z,0.00
2018-08-27T01:23:35.715Z,0.00
2018-08-27T01:24:35.890Z,0.00
2018-08-27T01:25:36.063Z,0.00
2018-08-27T01:26:36.237Z,0.00
2018-08-27T01:27:36.425Z,0.00
2018-08-27T01:28:36.585Z,0.00
2018-08-27T01:29:36.772Z,0.00
2018-08-27T01:30:36.947Z,0.00
2018-08-27T01:31:37.122Z,0.00
2018-08-27T01:32:37.296Z,0.00
2018-08-27T01:33:37.481Z,0.00
2018-08-27T01:34:37.660Z,0.00
2018-08-27T01:35:37.838Z,0.00
2018-08-27T01:36:38.022Z,0.00
2018-08-27T01:37:38.209Z,0.00
2018-08-27T01:38:38.379Z,0.00
2018-08-27T01:39:38.562Z,0.00
2018-08-27T01:40:38.741Z,0.00
2018-08-27T01:41:38.924Z,0.00
2018-08-27T01:42:39.106Z,0.00
2018-08-27T01:43:39.280Z,0.00
2018-08-27T01:44:39.469Z,0.00
2018-08-27T01:45:39.627Z,0.00
2018-08-27T01:46:39.802Z,0.00
2018-08-27T01:47:39.973Z,0.00
2018-08-27T01:48:40.156Z,0.00
2018-08-27T01:49:40.328Z,0.00
2018-08-27T01:50:40.506Z,0.00
2018-08-27T01:51:40.672Z,0.00
2018-08-27T01:52:40.853Z,0.00
2018-08-27T01:53:41.022Z,0.00
2018-08-27T01:54:41.188Z,0.00
2018-08-27T01:55:41.376Z,0.00
2018-08-27T01:56:41.537Z,0.00
2018-08-27T01:57:41.720Z,0.00
2018-08-27T01:58:41.893Z,0.00
2018-08-27T01:59:42.069Z,0.00
2018-08-27T02:00:42.255Z,0.00
2018-08-27T02:01:42.429Z,0.00
2018-08-27T02:02:42.612Z,0.00
2018-08-27T02:03:42.783Z,0.00
2018-08-27T02:04:42.976Z,0.00
2018-08-27T02:05:43.157Z,0.00
2018-08-27T02:06:43.328Z,0.00
2018-08-27T02:07:43.506Z,0.00
2018-08-27T02:08:43.678Z,0.00
2018-08-27T02:09:43.857Z,0.00
2018-08-27T02:10:44.031Z,0.00
2018-08-27T02:11:44.200Z,0.00
2018-08-27T02:12:44.367Z,0.00
2018-08-27T02:13:44.543Z,0.00
2018-08-27T02:14:44.724Z,0.00
2018-08-27T02:15:44.897Z,0.00
2018-08-27T02:16:45.070Z,0.00
2018-08-27T02:17:45.246Z,0.00
2018-08-27T02:18:45.421Z,0.00
2018-08-27T02:19:45.589Z,0.00
2018-08-27T02:20:45.770Z,0.00
2018-08-27T02:21:45.940Z,0.00
2018-08-27T02:22:46.112Z,0.00
2018-08-27T02:23:46.291Z,0.00
2018-08-27T02:24:46.468Z,0.00
2018-08-27T02:25:46.697Z,0.00
2018-08-27T02:26:46.825Z,0.00
2018-08-27T02:27:47.004Z,0.00
2018-08-27T02:28:47.173Z,0.00
2018-08-27T02:29:47.350Z,0.00
2018-08-27T02:30:47.519Z,0.00
2018-08-27T02:31:47.695Z,0.00
2018-08-27T02:32:47.874Z,0.00
2018-08-27T02:33:48.053Z,0.00
2018-08-27T02:34:48.232Z,0.00
2018-08-27T02:35:48.396Z,0.00
2018-08-27T02:36:48.577Z,0.00
2018-08-27T02:37:48.757Z,0.00
2018-08-27T02:38:48.927Z,0.00
2018-08-27T02:39:49.106Z,0.00
2018-08-27T02:40:49.280Z,0.00
2018-08-27T02:41:49.459Z,0.00
2018-08-27T02:42:49.636Z,0.00
2018-08-27T02:43:49.807Z,0.00
2018-08-27T02:44:49.993Z,0.00
2018-08-27T02:45:50.182Z,0.00
2018-08-27T02:46:50.361Z,0.00
2018-08-27T02:47:50.534Z,0.00
2018-08-27T02:48:50.709Z,0.00
2018-08-27T02:49:50.882Z,0.00
2018-08-27T02:50:51.054Z,0.00
2018-08-27T02:51:51.239Z,0.00
2018-08-27T02:52:51.410Z,0.00
2018-08-27T02:53:51.594Z,0.00
2018-08-27T02:54:51.759Z,0.00
2018-08-27T02:55:51.937Z,0.00
2018-08-27T02:56:52.101Z,0.00
2018-08-27T02:57:52.281Z,0.00
2018-08-27T02:58:52.449Z,0.00
2018-08-27T02:59:56.454Z,0.00
2018-08-27T03:00:52.824Z,0.00
2018-08-27T03:01:53.005Z,0.00
2018-08-27T03:02:53.186Z,0.00
2018-08-27T03:03:53.363Z,0.00
2018-08-27T03:04:53.542Z,0.00
2018-08-27T03:05:53.722Z,0.00
2018-08-27T03:06:53.889Z,0.00
2018-08-27T03:07:54.070Z,0.00
2018-08-27T03:08:54.239Z,0.00
2018-08-27T03:09:54.420Z,0.00
2018-08-27T03:10:54.588Z,0.00
2018-08-27T03:11:54.761Z,0.00
2018-08-27T03:12:54.940Z,0.00
2018-08-27T03:13:55.119Z,0.00
2018-08-27T03:14:55.303Z,0.00
2018-08-27T03:15:55.471Z,0.00
2018-08-27T03:16:55.649Z,0.00
2018-08-27T03:17:55.816Z,0.00
2018-08-27T03:18:55.990Z,0.00
2018-08-27T03:19:56.171Z,0.00
2018-08-27T03:20:56.341Z,0.00
2018-08-27T03:21:56.530Z,0.00
2018-08-27T03:22:56.711Z,0.00
2018-08-27T03:23:56.901Z,0.00
2018-08-27T03:24:57.094Z,0.00
2018-08-27T03:25:57.243Z,0.00
2018-08-27T03:26:57.423Z,0.00
2018-08-27T03:27:57.592Z,0.00
2018-08-27T03:28:57.764Z,0.00
2018-08-27T03:29:57.944Z,0.00
2018-08-27T03:30:58.123Z,0.00
2018-08-27T03:31:58.302Z,0.00
2018-08-27T03:32:58.518Z,0.00
2018-08-27T03:33:58.653Z,0.00
2018-08-27T03:34:58.818Z,0.00
2018-08-27T03:35:58.987Z,0.00
2018-08-27T03:36:59.164Z,0.00
2018-08-27T03:37:59.334Z,0.00
2018-08-27T03:38:59.501Z,0.00
2018-08-27T03:39:59.682Z,0.00
2018-08-27T03:40:59.848Z,0.00
2018-08-27T03:42:00.035Z,0.00
2018-08-27T03:43:00.209Z,0.00
2018-08-27T03:44:00.377Z,0.00
2018-08-27T03:45:00.544Z,0.00
2018-08-27T03:46:00.722Z,0.00
2018-08-27T03:47:00.894Z,0.00
2018-08-27T03:48:01.070Z,0.00
2018-08-27T03:49:01.249Z,0.00
2018-08-27T03:50:01.427Z,0.00
2018-08-27T03:51:01.612Z,0.00
2018-08-27T03:52:01.790Z,0.00
2018-08-27T03:53:01.956Z,0.00
2018-08-27T03:54:02.146Z,0.00
2018-08-27T03:55:02.323Z,0.00
2018-08-27T03:56:02.508Z,0.00
2018-08-27T03:57:02.675Z,0.00
2018-08-27T03:58:02.858Z,0.00
2018-08-27T03:59:03.039Z,0.00
2018-08-27T04:00:03.223Z,0.00
2018-08-27T04:01:03.404Z,0.00
2018-08-27T04:02:03.582Z,0.00
2018-08-27T04:03:03.755Z,0.00
2018-08-27T04:04:07.623Z,0.00
2018-08-27T04:05:06.286Z,0.00
2018-08-27T04:06:06.872Z,0.00
2018-08-27T04:07:07.310Z,0.00
2018-08-27T04:08:07.528Z,0.00
2018-08-27T04:09:07.004Z,0.00
2018-08-27T04:10:08.211Z,0.00
2018-08-27T04:11:08.899Z,0.00
2018-08-27T04:12:08.985Z,0.00
2018-08-27T04:13:11.209Z,0.00
2018-08-27T04:14:10.673Z,0.00
2018-08-27T04:15:09.447Z,0.00
2018-08-27T04:16:08.144Z,0.00
2018-08-27T04:17:09.302Z,0.00
2018-08-27T04:18:08.059Z,0.00
2018-08-27T04:19:08.490Z,0.00
2018-08-27T04:20:08.754Z,0.00
2018-08-27T04:21:10.794Z,0.00
2018-08-27T04:22:09.148Z,0.00
2018-08-27T04:23:12.709Z,0.00
2018-08-27T04:24:11.091Z,0.00
2018-08-27T04:25:07.527Z,0.00
2018-08-27T04:26:11.793Z,0.00
2018-08-27T04:27:12.097Z,0.00
2018-08-27T04:28:10.354Z,0.00
2018-08-27T04:29:09.454Z,0.00
2018-08-27T04:30:08.331Z,0.00
2018-08-27T04:31:10.752Z,0.00
2018-08-27T04:32:11.249Z,0.00
2018-08-27T04:33:12.264Z,0.00
2018-08-27T04:34:10.769Z,0.00
2018-08-27T04:35:09.265Z,0.00
2018-08-27T04:36:09.436Z,0.00
2018-08-27T04:37:09.614Z,0.00
2018-08-27T04:38:09.786Z,0.00
2018-08-27T04:39:09.963Z,0.00
2018-08-27T04:40:10.136Z,0.00
2018-08-27T04:41:10.309Z,0.00
2018-08-27T04:42:10.491Z,0.00
2018-08-27T04:43:11.981Z,0.00
2018-08-27T04:44:12.123Z,0.00
2018-08-27T04:45:13.487Z,0.00
2018-08-27T04:46:11.166Z,0.00
2018-08-27T04:47:12.190Z,0.00
2018-08-27T04:48:11.803Z,0.00
2018-08-27T04:49:11.606Z,0.00
2018-08-27T04:50:11.779Z,0.00
2018-08-27T04:51:11.953Z,0.00
2018-08-27T04:52:12.134Z,0.00
2018-08-27T04:53:12.557Z,0.00
2018-08-27T04:54:12.426Z,0.00
2018-08-27T04:55:12.599Z,0.00
2018-08-27T04:56:12.776Z,0.00
2018-08-27T04:57:12.953Z,0.00
2018-08-27T04:58:13.128Z,5.63
2018-08-27T04:59:13.359Z,5.63
2018-08-27T05:00:15.175Z,5.63
2018-08-27T05:01:13.700Z,5.63
2018-08-27T05:02:13.871Z,5.63
2018-08-27T05:03:16.173Z,5.63
2018-08-27T05:04:15.021Z,5.63
2018-08-27T05:05:14.901Z,5.63
2018-08-27T05:06:16.998Z,5.63
2018-08-27T05:07:15.727Z,5.63
2018-08-27T05:08:15.797Z,5.63
2018-08-27T05:09:17.252Z,5.63
2018-08-27T05:10:17.266Z,5.63
2018-08-27T05:11:17.452Z,5.63
2018-08-27T05:12:16.013Z,5.63
2018-08-27T05:13:16.515Z,5.63
2018-08-27T05:14:18.511Z,5.63
2018-08-27T05:15:16.835Z,11.25
2018-08-27T05:16:19.451Z,11.25
2018-08-27T05:17:18.013Z,11.25
2018-08-27T05:18:18.766Z,11.25
2018-08-27T05:19:18.635Z,5.63
2018-08-27T05:20:17.343Z,5.63
2018-08-27T05:21:20.830Z,5.63
2018-08-27T05:22:19.053Z,5.63
2018-08-27T05:23:19.656Z,11.25
2018-08-27T05:24:18.849Z,11.25
2018-08-27T05:25:20.047Z,11.25
2018-08-27T05:26:18.886Z,11.25
2018-08-27T05:27:19.556Z,11.25
2018-08-27T05:28:18.889Z,5.63
2018-08-27T05:29:20.164Z,5.63
2018-08-27T05:30:20.600Z,11.25
2018-08-27T05:31:19.346Z,11.25
2018-08-27T05:32:20.917Z,11.25
2018-08-27T05:33:21.778Z,11.25
2018-08-27T05:34:22.296Z,11.25
2018-08-27T05:35:21.871Z,11.25
2018-08-27T05:36:21.610Z,11.25
2018-08-27T05:37:21.167Z,11.25
2018-08-27T05:38:22.199Z,11.25
2018-08-27T05:39:24.157Z,16.88
2018-08-27T05:40:25.479Z,16.88
2018-08-27T05:41:23.213Z,16.88
2018-08-27T05:42:24.281Z,16.88
2018-08-27T05:43:23.647Z,16.88
2018-08-27T05:44:22.669Z,16.88
2018-08-27T05:45:22.355Z,16.88
2018-08-27T05:46:21.510Z,16.88
2018-08-27T05:47:23.696Z,16.88
2018-08-27T05:48:25.654Z,16.88
2018-08-27T05:49:25.172Z,16.88
2018-08-27T05:50:25.480Z,16.88
2018-08-27T05:51:22.318Z,22.50
2018-08-27T05:52:25.393Z,22.50
2018-08-27T05:53:23.469Z,22.50
2018-08-27T05:54:22.946Z,28.13
2018-08-27T05:55:23.175Z,28.13
2018-08-27T05:56:22.685Z,28.13
2018-08-27T05:57:22.795Z,28.13
2018-08-27T05:58:23.080Z,28.13
2018-08-27T05:59:23.161Z,28.13
2018-08-27T06:00:23.108Z,33.75
2018-08-27T06:01:23.306Z,39.38
2018-08-27T06:02:23.458Z,33.75
2018-08-27T06:03:23.633Z,33.75
2018-08-27T06:04:23.815Z,28.13
2018-08-27T06:05:23.996Z,28.13
2018-08-27T06:06:24.169Z,28.13
2018-08-27T06:07:24.340Z,28.13
2018-08-27T06:08:24.517Z,28.13
2018-08-27T06:09:32.184Z,28.13
2018-08-27T06:10:32.858Z,28.13
2018-08-27T06:11:32.926Z,28.13
2018-08-27T06:12:25.221Z,28.13
2018-08-27T06:13:25.401Z,28.13
2018-08-27T06:14:25.743Z,28.13
2018-08-27T06:15:25.720Z,28.13
2018-08-27T06:16:25.919Z,28.13
2018-08-27T06:17:26.076Z,28.13
2018-08-27T06:18:26.266Z,28.13
2018-08-27T06:19:26.450Z,28.13
2018-08-27T06:20:26.683Z,28.13
2018-08-27T06:21:26.727Z,28.13
2018-08-27T06:22:27.077Z,28.13
2018-08-27T06:23:27.151Z,28.13
2018-08-27T06:24:27.199Z,28.13
2018-08-27T06:25:31.674Z,28.13
2018-08-27T06:26:30.685Z,33.75
2018-08-27T06:27:27.603Z,33.75
2018-08-27T06:28:27.791Z,33.75
2018-08-27T06:29:28.127Z,33.75
2018-08-27T06:30:28.185Z,33.75
2018-08-27T06:31:28.366Z,39.38
2018-08-27T06:32:28.971Z,50.63
2018-08-27T06:33:29.153Z,61.88
2018-08-27T06:34:29.001Z,67.50
2018-08-27T06:35:28.954Z,61.88
2018-08-27T06:36:29.152Z,45.00
2018-08-27T06:37:29.374Z,39.38
2018-08-27T06:38:29.448Z,33.75
2018-08-27T06:39:29.677Z,33.75
2018-08-27T06:40:29.729Z,33.75
2018-08-27T06:41:29.946Z,33.75
2018-08-27T06:42:30.125Z,39.38
2018-08-27T06:43:30.306Z,50.63
2018-08-27T06:44:30.551Z,56.25
2018-08-27T06:45:30.802Z,61.88
2018-08-27T06:46:30.852Z,61.88
2018-08-27T06:47:31.227Z,50.63
2018-08-27T06:48:32.631Z,45.00
2018-08-27T06:49:31.339Z,45.00
2018-08-27T06:50:31.965Z,39.38
2018-08-27T06:51:32.190Z,33.75
2018-08-27T06:52:32.048Z,33.75
2018-08-27T06:53:31.975Z,33.75
2018-08-27T06:54:33.355Z,33.75
2018-08-27T06:55:32.380Z,39.38
2018-08-27T06:56:32.880Z,45.00
2018-08-27T06:57:33.342Z,45.00
2018-08-27T06:58:32.851Z,50.63
2018-08-27T06:59:32.927Z,56.25
2018-08-27T07:00:33.098Z,61.88
2018-08-27T07:01:33.288Z,73.13
2018-08-27T07:02:33.473Z,73.13
2018-08-27T07:03:33.652Z,67.50
2018-08-27T07:04:33.837Z,61.88
2018-08-27T07:05:34.012Z,61.88
2018-08-27T07:06:34.203Z,61.88
2018-08-27T07:07:34.416Z,50.63
2018-08-27T07:08:34.572Z,45.00
2018-08-27T07:09:34.755Z,50.63
2018-08-27T07:10:34.936Z,73.13
2018-08-27T07:11:35.206Z,112.50
2018-08-27T07:12:35.281Z,151.88
2018-08-27T07:13:35.476Z,174.38
2018-08-27T07:14:35.687Z,196.88
2018-08-27T07:15:35.881Z,213.75
2018-08-27T07:16:36.060Z,258.75
2018-08-27T07:17:36.252Z,258.75
2018-08-27T07:18:36.435Z,185.63
2018-08-27T07:19:36.634Z,135.00
2018-08-27T07:20:36.824Z,157.50
2018-08-27T07:21:37.020Z,241.88
2018-08-27T07:22:37.199Z,292.50
2018-08-27T07:23:37.388Z,258.75
2018-08-27T07:24:37.577Z,185.63
2018-08-27T07:25:37.765Z,151.88
2018-08-27T07:26:37.989Z,140.63
2018-08-27T07:27:38.060Z,163.13
2018-08-27T07:28:38.961Z,180.00
2018-08-27T07:29:38.414Z,129.38
2018-08-27T07:30:38.765Z,106.88
2018-08-27T07:31:38.837Z,112.50
2018-08-27T07:32:39.031Z,135.00
2018-08-27T07:33:39.514Z,146.25
2018-08-27T07:34:39.439Z,146.25
2018-08-27T07:35:39.764Z,140.63
2018-08-27T07:36:40.309Z,140.63
2018-08-27T07:37:39.877Z,118.13
2018-08-27T07:38:40.066Z,112.50
2018-08-27T07:39:40.249Z,112.50
2018-08-27T07:40:40.441Z,118.13
2018-08-27T07:41:40.622Z,135.00
2018-08-27T07:42:40.941Z,151.88
2018-08-27T07:43:40.993Z,163.13
2018-08-27T07:44:41.171Z,180.00
2018-08-27T07:45:41.362Z,191.25
2018-08-27T07:46:41.557Z,191.25
2018-08-27T07:47:41.754Z,191.25
2018-08-27T07:48:41.949Z,168.75
2018-08-27T07:49:42.136Z,163.13
2018-08-27T07:50:42.409Z,168.75
2018-08-27T07:51:42.897Z,185.63
2018-08-27T07:52:42.754Z,213.75
2018-08-27T07:53:42.980Z,258.75
2018-08-27T07:54:43.044Z,315.00
2018-08-27T07:55:43.225Z,309.38
2018-08-27T07:56:43.420Z,241.88
2018-08-27T07:57:43.643Z,264.38
2018-08-27T07:58:43.882Z,286.88
2018-08-27T07:59:43.945Z,320.63
2018-08-27T08:00:44.133Z,315.00
2018-08-27T08:01:44.356Z,286.88
2018-08-27T08:02:44.537Z,258.75
2018-08-27T08:03:44.739Z,230.63
2018-08-27T08:04:45.035Z,241.88
2018-08-27T08:05:45.183Z,241.88
2018-08-27T08:06:45.270Z,230.63
2018-08-27T08:07:48.059Z,213.75
2018-08-27T08:08:45.761Z,196.88
2018-08-27T08:09:45.908Z,191.25
2018-08-27T08:10:46.004Z,208.13
2018-08-27T08:11:46.194Z,247.50
2018-08-27T08:12:47.911Z,275.63
2018-08-27T08:13:46.515Z,236.25
2018-08-27T08:14:46.715Z,241.88
2018-08-27T08:15:46.909Z,286.88
2018-08-27T08:16:47.678Z,331.88
2018-08-27T08:17:48.538Z,326.25
2018-08-27T08:18:48.854Z,315.00
2018-08-27T08:19:47.855Z,343.13
2018-08-27T08:20:47.840Z,270.00
2018-08-27T08:21:50.062Z,202.50
2018-08-27T08:22:48.206Z,196.88
2018-08-27T08:23:52.071Z,247.50
2018-08-27T08:24:48.825Z,331.88
2018-08-27T08:25:49.174Z,286.88
2018-08-27T08:26:51.247Z,247.50
2018-08-27T08:27:48.957Z,253.13
2018-08-27T08:28:57.232Z,303.75
2018-08-27T08:29:49.302Z,326.25
2018-08-27T08:30:49.502Z,286.88
2018-08-27T08:31:49.727Z,208.13
2018-08-27T08:32:49.888Z,157.50
2018-08-27T08:33:50.081Z,129.38
2018-08-27T08:34:50.267Z,101.25
2018-08-27T08:35:50.452Z,84.38
2018-08-27T08:36:50.626Z,78.75
2018-08-27T08:37:50.820Z,78.75
2018-08-27T08:38:51.003Z,73.13
2018-08-27T08:39:51.286Z,61.88
2018-08-27T08:40:51.387Z,56.25
2018-08-27T08:41:51.582Z,50.63
2018-08-27T08:42:51.763Z,50.63
2018-08-27T08:43:51.951Z,50.63
2018-08-27T08:44:52.181Z,56.25
2018-08-27T08:45:52.361Z,61.88
2018-08-27T08:46:52.577Z,67.50
2018-08-27T08:47:52.758Z,78.75
2018-08-27T08:48:54.284Z,90.00
2018-08-27T08:49:54.452Z,90.00
2018-08-27T08:50:54.683Z,90.00
2018-08-27T08:51:55.098Z,95.63
2018-08-27T08:52:53.594Z,101.25
2018-08-27T08:53:53.794Z,106.88
2018-08-27T08:54:55.455Z,95.63
2018-08-27T08:55:55.461Z,90.00
2018-08-27T08:56:55.720Z,84.38
2018-08-27T08:57:56.324Z,78.75
2018-08-27T08:58:56.134Z,78.75
2018-08-27T08:59:56.370Z,84.38
2018-08-27T09:00:56.171Z,90.00
2018-08-27T09:01:56.753Z,101.25
2018-08-27T09:02:55.457Z,118.13
2018-08-27T09:03:56.765Z,129.38
2018-08-27T09:04:57.233Z,129.38
2018-08-27T09:05:57.551Z,118.13
2018-08-27T09:06:56.224Z,106.88
2018-08-27T09:07:56.301Z,101.25
2018-08-27T09:08:57.906Z,90.00
2018-08-27T09:09:57.255Z,90.00
2018-08-27T09:10:56.883Z,90.00
2018-08-27T09:11:56.997Z,95.63
2018-08-27T09:12:57.055Z,95.63
2018-08-27T09:13:57.232Z,95.63
2018-08-27T09:14:57.418Z,95.63
2018-08-27T09:15:57.598Z,90.00
2018-08-27T09:17:00.259Z,90.00
2018-08-27T09:17:59.112Z,84.38
2018-08-27T09:18:59.049Z,90.00
2018-08-27T09:19:59.464Z,95.63
2018-08-27T09:21:02.209Z,106.88
2018-08-27T09:21:58.574Z,118.13
2018-08-27T09:22:58.759Z,123.75
2018-08-27T09:23:58.955Z,123.75
2018-08-27T09:24:59.132Z,118.13
2018-08-27T09:25:59.319Z,112.50
2018-08-27T09:26:59.520Z,106.88
2018-08-27T09:27:59.704Z,112.50
2018-08-27T09:28:59.884Z,101.25
2018-08-27T09:30:00.075Z,90.00
2018-08-27T09:31:00.251Z,90.00
2018-08-27T09:32:00.438Z,101.25
2018-08-27T09:33:00.653Z,101.25
2018-08-27T09:34:00.808Z,101.25
2018-08-27T09:35:00.997Z,112.50
2018-08-27T09:36:01.188Z,123.75
2018-08-27T09:37:01.437Z,135.00
2018-08-27T09:38:03.769Z,146.25
2018-08-27T09:39:01.761Z,151.88
2018-08-27T09:40:02.372Z,163.13
2018-08-27T09:41:02.115Z,168.75
2018-08-27T09:42:02.309Z,168.75
2018-08-27T09:43:05.382Z,163.13
2018-08-27T09:44:02.605Z,163.13
2018-08-27T09:45:04.961Z,163.13
2018-08-27T09:46:02.986Z,163.13
2018-08-27T09:47:03.147Z,157.50
2018-08-27T09:48:03.340Z,146.25
2018-08-27T09:49:03.557Z,123.75
2018-08-27T09:50:03.736Z,135.00
2018-08-27T09:51:03.915Z,135.00
2018-08-27T09:52:04.110Z,129.38
2018-08-27T09:53:08.110Z,129.38
2018-08-27T09:54:04.431Z,106.88
2018-08-27T09:55:04.609Z,112.50
2018-08-27T09:56:04.799Z,112.50
2018-08-27T09:57:04.992Z,151.88
2018-08-27T09:58:05.175Z,123.75
2018-08-27T09:59:05.437Z,112.50
2018-08-27T10:00:05.557Z,112.50
2018-08-27T10:01:05.745Z,106.88
2018-08-27T10:02:05.923Z,157.50
2018-08-27T10:03:06.109Z,146.25
2018-08-27T10:04:06.296Z,140.63
2018-08-27T10:05:11.139Z,135.00
2018-08-27T10:06:08.676Z,163.13
2018-08-27T10:07:07.004Z,123.75
2018-08-27T10:08:08.649Z,112.50
2018-08-27T10:09:08.152Z,106.88
2018-08-27T10:10:07.248Z,106.88
2018-08-27T10:11:07.442Z,90.00
2018-08-27T10:12:07.673Z,73.13
2018-08-27T10:13:07.798Z,78.75
2018-08-27T10:14:07.971Z,84.38
2018-08-27T10:15:10.835Z,112.50
2018-08-27T10:16:08.360Z,90.00
2018-08-27T10:17:09.220Z,78.75
2018-08-27T10:18:10.342Z,106.88
2018-08-27T10:19:12.086Z,112.50
2018-08-27T10:20:09.590Z,112.50
2018-08-27T10:21:09.026Z,106.88
2018-08-27T10:22:09.210Z,95.63
2018-08-27T10:23:09.396Z,90.00
2018-08-27T10:24:09.582Z,84.38
2018-08-27T10:25:09.842Z,73.13
2018-08-27T10:26:09.966Z,67.50
2018-08-27T10:27:10.143Z,73.13
2018-08-27T10:28:10.338Z,67.50
2018-08-27T10:29:10.517Z,73.13
2018-08-27T10:30:10.716Z,84.38
2018-08-27T10:31:10.898Z,101.25
2018-08-27T10:32:11.078Z,84.38
2018-08-27T10:33:11.272Z,73.13
2018-08-27T10:34:11.458Z,78.75
2018-08-27T10:35:11.630Z,78.75
2018-08-27T10:36:11.817Z,67.50
2018-08-27T10:37:12.045Z,67.50
2018-08-27T10:38:12.179Z,73.13
2018-08-27T10:39:12.366Z,78.75
2018-08-27T10:40:21.154Z,73.13
2018-08-27T10:41:20.206Z,78.75
2018-08-27T10:42:12.888Z,78.75
2018-08-27T10:43:13.077Z,78.75
2018-08-27T10:44:21.403Z,78.75
2018-08-27T10:45:21.460Z,90.00
2018-08-27T10:46:21.525Z,90.00
2018-08-27T10:47:21.603Z,84.38
2018-08-27T10:48:14.025Z,78.75
2018-08-27T10:49:14.207Z,90.00
2018-08-27T10:50:14.472Z,90.00
2018-08-27T10:51:14.611Z,90.00
2018-08-27T10:52:14.800Z,90.00
2018-08-27T10:53:14.985Z,90.00
2018-08-27T10:54:15.173Z,112.50
2018-08-27T10:55:15.346Z,123.75
2018-08-27T10:56:15.525Z,123.75
2018-08-27T10:57:15.719Z,123.75
2018-08-27T10:58:15.983Z,106.88
2018-08-27T10:59:16.083Z,95.63
2018-08-27T11:00:16.268Z,106.88
2018-08-27T11:01:16.600Z,106.88
2018-08-27T11:02:16.636Z,90.00
2018-08-27T11:03:16.816Z,90.00
2018-08-27T11:04:17.020Z,84.38
2018-08-27T11:05:17.217Z,84.38
2018-08-27T11:06:17.405Z,78.75
2018-08-27T11:07:17.596Z,73.13
2018-08-27T11:08:17.759Z,78.75
2018-08-27T11:09:18.062Z,78.75
2018-08-27T11:10:18.127Z,78.75
2018-08-27T11:11:18.679Z,78.75
2018-08-27T11:12:18.514Z,73.13
2018-08-27T11:13:18.752Z,67.50
2018-08-27T11:14:18.812Z,67.50
2018-08-27T11:15:19.000Z,73.13
2018-08-27T11:16:19.189Z,73.13
2018-08-27T11:17:19.378Z,61.88
2018-08-27T11:18:19.614Z,61.88
2018-08-27T11:19:19.728Z,67.50
2018-08-27T11:20:20.326Z,67.50
2018-08-27T11:21:20.083Z,61.88
2018-08-27T11:22:20.270Z,67.50
2018-08-27T11:23:20.447Z,67.50
2018-08-27T11:24:20.666Z,61.88
2018-08-27T11:25:20.877Z,56.25
2018-08-27T11:26:21.498Z,56.25
2018-08-27T11:27:21.278Z,50.63
2018-08-27T11:28:21.496Z,45.00
2018-08-27T11:29:21.654Z,50.63
2018-08-27T11:30:21.775Z,56.25
2018-08-27T11:31:21.916Z,50.63
2018-08-27T11:32:22.101Z,45.00
2018-08-27T11:33:22.282Z,45.00
2018-08-27T11:34:23.301Z,39.38
2018-08-27T11:35:24.958Z,39.38
2018-08-27T11:36:22.792Z,45.00
2018-08-27T11:37:22.812Z,45.00
2018-08-27T11:38:22.996Z,45.00
2018-08-27T11:39:23.187Z,45.00
2018-08-27T11:40:23.380Z,45.00
2018-08-27T11:41:23.569Z,45.00
2018-08-27T11:42:23.752Z,45.00
2018-08-27T11:43:23.965Z,45.00
2018-08-27T11:44:24.122Z,45.00
2018-08-27T11:45:24.314Z,45.00
2018-08-27T11:46:24.524Z,39.38
2018-08-27T11:47:24.701Z,45.00
2018-08-27T11:48:24.890Z,50.63
2018-08-27T11:49:25.109Z,50.63
2018-08-27T11:50:25.519Z,50.63
2018-08-27T11:51:25.796Z,50.63
2018-08-27T11:52:30.054Z,56.25
2018-08-27T11:53:25.648Z,56.25
2018-08-27T11:54:25.836Z,50.63
2018-08-27T11:55:29.359Z,50.63
2018-08-27T11:56:26.575Z,50.63
2018-08-27T11:57:31.239Z,56.25
2018-08-27T11:58:30.263Z,56.25
2018-08-27T11:59:31.731Z,61.88
2018-08-27T12:00:32.042Z,67.50
2018-08-27T12:01:26.936Z,67.50
2018-08-27T12:02:27.677Z,67.50
2018-08-27T12:03:27.310Z,61.88
2018-08-27T12:04:29.460Z,56.25
2018-08-27T12:05:29.647Z,61.88
2018-08-27T12:06:33.450Z,61.88
2018-08-27T12:07:32.735Z,61.88
2018-08-27T12:08:32.535Z,61.88
2018-08-27T12:09:28.182Z,61.88
2018-08-27T12:10:28.783Z,61.88
2018-08-27T12:11:28.543Z,67.50
2018-08-27T12:12:28.784Z,67.50
2018-08-27T12:13:28.871Z,67.50
2018-08-27T12:14:29.458Z,61.88
2018-08-27T12:15:29.413Z,61.88
2018-08-27T12:16:29.401Z,56.25
2018-08-27T12:17:29.595Z,61.88
2018-08-27T12:18:29.796Z,61.88
2018-08-27T12:19:30.221Z,61.88
2018-08-27T12:20:30.603Z,67.50
2018-08-27T12:21:30.293Z,61.88
2018-08-27T12:22:30.493Z,56.25
2018-08-27T12:23:30.729Z,56.25
2018-08-27T12:24:30.792Z,61.88
2018-08-27T12:25:30.981Z,61.88
2018-08-27T12:26:31.160Z,67.50
2018-08-27T12:27:31.368Z,67.50
2018-08-27T12:28:31.833Z,73.13
2018-08-27T12:29:31.675Z,67.50
2018-08-27T12:30:31.862Z,73.13
2018-08-27T12:31:32.077Z,73.13
2018-08-27T12:32:32.852Z,73.13
2018-08-27T12:33:32.606Z,73.13
2018-08-27T12:34:32.566Z,73.13
2018-08-27T12:35:32.821Z,67.50
2018-08-27T12:36:32.872Z,61.88
2018-08-27T12:37:33.210Z,61.88
2018-08-27T12:38:34.480Z,67.50
2018-08-27T12:39:33.923Z,67.50
2018-08-27T12:40:34.242Z,73.13
2018-08-27T12:41:34.286Z,78.75
2018-08-27T12:42:34.144Z,73.13
2018-08-27T12:43:34.132Z,73.13
2018-08-27T12:44:34.668Z,67.50
2018-08-27T12:45:35.084Z,67.50
2018-08-27T12:46:35.172Z,61.88
2018-08-27T12:47:34.738Z,67.50
2018-08-27T12:48:39.153Z,67.50
2018-08-27T12:49:35.447Z,67.50
2018-08-27T12:50:35.373Z,67.50
2018-08-27T12:51:35.444Z,61.88
2018-08-27T12:52:35.537Z,56.25
2018-08-27T12:53:36.174Z,56.25
2018-08-27T12:54:36.562Z,61.88
2018-08-27T12:55:36.399Z,73.13
2018-08-27T12:56:43.989Z,78.75
2018-08-27T12:57:43.971Z,84.38
2018-08-27T12:58:36.726Z,84.38
2018-08-27T12:59:37.080Z,78.75
2018-08-27T13:00:37.105Z,84.38